Time;durP1;ratioP1;P1;durP2;ratioP2;P2;SDS_P1;SDS_P2;PMS_P1;PMS_P2;Temp;Humidity;BMP_temperature;BMP_pressure;BME280_temperature;BME280_humidity;BME280_pressure;Samples;Min_cycle;Max_cycle;Signal;HPM_P1;HPM_P2
2021/07/27 00:01:59;;;;;;;;;13.00;12.75;;;;;;;;5051737;28;8835;-77
2021/07/27 00:04:27;;;;;;;;;11.50;11.25;;;;;;;;5037055;28;9725;-78
2021/07/27 00:06:55;;;;;;;;;9.50;9.50;;;;;;;;5055587;28;8849;-77
2021/07/27 00:09:22;;;;;;;;;9.00;9.00;;;;;;;;5053184;28;8846;-75
2021/07/27 00:11:49;;;;;;;;;11.50;11.50;;;;;;;;5064857;28;8986;-77
2021/07/27 00:14:16;;;;;;;;;13.25;9.50;;;;;;;;5055429;28;8850;-77
2021/07/27 00:16:43;;;;;;;;;15.50;15.50;;;;;;;;5052132;28;8880;-77
2021/07/27 00:19:11;;;;;;;;;12.25;10.00;;;;;;;;5066827;28;8860;-78
2021/07/27 00:21:39;;;;;;;;;9.25;9.25;;;;;;;;5050338;28;8843;-75
2021/07/27 00:24:06;;;;;;;;;10.00;10.00;;;;;;;;5047876;28;8996;-77
2021/07/27 00:26:34;;;;;;;;;17.00;15.50;;;;;;;;5058741;28;8961;-76
2021/07/27 00:29:02;;;;;;;;;11.50;10.25;;;;;;;;5046305;28;9004;-76
2021/07/27 00:31:29;;;;;;;;;10.25;10.25;;;;;;;;5053430;28;8839;-77
2021/07/27 00:33:56;;;;;;;;;10.00;10.00;;;;;;;;5049994;28;8862;-78
2021/07/27 00:36:23;;;;;;;;;11.50;11.50;;;;;;;;5065764;28;8876;-77
2021/07/27 00:38:52;;;;;;;;;10.75;10.00;;;;;;;;5057691;28;8937;-75
2021/07/27 00:41:19;;;;;;;;;6.75;6.75;;;;;;;;5065586;28;8868;-77
2021/07/27 00:43:46;;;;;;;;;12.50;12.50;;;;;;;;5054617;28;8873;-74
2021/07/27 00:46:13;;;;;;;;;15.00;11.00;;;;;;;;5052893;28;8898;-79
2021/07/27 00:48:41;;;;;;;;;14.00;10.75;;;;;;;;5050796;28;8854;-76
2021/07/27 00:51:08;;;;;;;;;11.50;11.25;;;;;;;;5047208;28;8870;-78
2021/07/27 00:53:36;;;;;;;;;14.25;13.25;;;;;;;;5035850;28;8858;-75
2021/07/27 00:56:06;;;;;;;;;13.25;13.25;;;;;;;;5062176;28;8945;-76
2021/07/27 00:58:33;;;;;;;;;15.75;12.25;;;;;;;;5057367;28;8860;-78
2021/07/27 01:01:01;;;;;;;;;20.00;15.75;;;;;;;;5058876;28;9573;-76
2021/07/27 01:03:29;;;;;;;;;10.50;10.50;;;;;;;;5061896;28;8884;-75
2021/07/27 01:05:56;;;;;;;;;13.75;12.50;;;;;;;;5059099;28;8871;-76
2021/07/27 01:08:23;;;;;;;;;14.75;14.75;;;;;;;;5046698;28;8871;-75
2021/07/27 01:10:50;;;;;;;;;12.50;9.25;;;;;;;;5056718;28;8919;-78
2021/07/27 01:13:19;;;;;;;;;10.25;8.25;;;;;;;;5061521;28;8870;-78
2021/07/27 01:15:46;;;;;;;;;10.75;9.50;;;;;;;;5055270;28;8888;-77
2021/07/27 01:18:20;;;;;;;;;12.50;12.50;;;;;;;;5054168;28;8872;-78
2021/07/27 01:20:55;;;;;;;;;13.50;13.50;;;;;;;;5057618;28;8895;-77
2021/07/27 01:39:50;;;;;;;;;13.25;13.25;;;;;;;;5053904;28;8844;-78
2021/07/27 01:42:18;;;;;;;;;16.00;16.00;;;;;;;;5046013;28;8912;-77
2021/07/27 01:44:46;;;;;;;;;14.75;14.00;;;;;;;;5051602;28;8928;-75
2021/07/27 01:47:14;;;;;;;;;12.50;11.50;;;;;;;;5052532;28;8883;-77
2021/07/27 01:49:42;;;;;;;;;11.25;11.25;;;;;;;;5065086;28;9720;-77
2021/07/27 01:52:13;;;;;;;;;13.50;13.50;;;;;;;;5057732;28;8879;-76
2021/07/27 01:55:09;;;;;;;;;15.50;15.50;;;;;;;;5065519;28;8867;-79
2021/07/27 01:57:36;;;;;;;;;19.00;16.50;;;;;;;;5029458;28;8943;-76
2021/07/27 02:00:12;;;;;;;;;16.50;14.50;;;;;;;;5045030;28;8997;-77
2021/07/27 02:02:39;;;;;;;;;12.00;11.25;;;;;;;;5051994;28;8897;-77
2021/07/27 02:05:10;;;;;;;;;15.25;15.25;;;;;;;;5046583;28;8854;-75
2021/07/27 02:07:38;;;;;;;;;14.25;14.25;;;;;;;;5041609;28;8899;-77
2021/07/27 02:10:12;;;;;;;;;14.00;14.00;;;;;;;;5049142;28;8874;-75
2021/07/27 02:12:49;;;;;;;;;18.00;18.00;;;;;;;;5063996;28;8917;-78
2021/07/27 02:15:17;;;;;;;;;26.00;22.75;;;;;;;;5046824;28;8846;-76
2021/07/27 02:17:46;;;;;;;;;27.25;27.25;;;;;;;;5054916;28;8864;-78
2021/07/27 02:20:15;;;;;;;;;21.75;21.75;;;;;;;;5055769;28;8852;-76
2021/07/27 02:22:43;;;;;;;;;29.50;26.25;;;;;;;;5063504;28;8883;-76
2021/07/27 02:25:12;;;;;;;;;28.75;28.75;;;;;;;;5056263;28;8845;-77
2021/07/27 02:27:40;;;;;;;;;28.50;27.25;;;;;;;;5060826;28;8871;-78
2021/07/27 02:30:08;;;;;;;;;19.50;19.50;;;;;;;;5049733;28;8884;-76
2021/07/27 02:32:36;;;;;;;;;25.75;22.25;;;;;;;;5051560;28;8991;-79
2021/07/27 02:35:06;;;;;;;;;27.75;23.00;;;;;;;;5043369;28;8898;-77
2021/07/27 02:37:33;;;;;;;;;19.00;19.00;;;;;;;;5058737;28;8856;-76
2021/07/27 02:40:02;;;;;;;;;20.25;20.25;;;;;;;;5058358;28;9626;-78
2021/07/27 02:42:30;;;;;;;;;21.25;20.25;;;;;;;;5063053;28;9011;-77
2021/07/27 02:44:58;;;;;;;;;29.25;28.25;;;;;;;;5052581;28;8844;-77
2021/07/27 02:47:25;;;;;;;;;21.50;18.50;;;;;;;;5060485;28;9002;-77
2021/07/27 02:49:52;;;;;;;;;25.00;21.50;;;;;;;;5052883;28;8929;-77
2021/07/27 02:52:20;;;;;;;;;25.00;25.00;;;;;;;;5059542;28;8915;-76
2021/07/27 02:54:47;;;;;;;;;25.50;25.50;;;;;;;;5054320;28;8887;-75
2021/07/27 02:57:15;;;;;;;;;24.75;22.50;;;;;;;;5051563;28;8878;-78
2021/07/27 02:59:44;;;;;;;;;27.75;25.75;;;;;;;;5045206;28;8984;-78
2021/07/27 03:02:11;;;;;;;;;27.50;23.00;;;;;;;;5054585;28;8825;-77
2021/07/27 03:04:38;;;;;;;;;23.50;20.50;;;;;;;;5058457;28;8893;-79
2021/07/27 03:07:06;;;;;;;;;24.50;24.00;;;;;;;;5043049;28;9667;-78
2021/07/27 03:09:45;;;;;;;;;24.75;24.75;;;;;;;;5058558;28;8892;-77
2021/07/27 03:12:12;;;;;;;;;24.50;23.75;;;;;;;;5063765;28;8864;-77
2021/07/27 03:14:39;;;;;;;;;24.00;23.25;;;;;;;;5049849;28;8886;-75
2021/07/27 03:17:08;;;;;;;;;26.00;25.25;;;;;;;;5063539;28;8914;-77
2021/07/27 03:19:35;;;;;;;;;27.00;26.50;;;;;;;;5062742;28;8939;-77
2021/07/27 03:22:02;;;;;;;;;28.75;25.50;;;;;;;;5056184;28;8878;-76
2021/07/27 03:24:29;;;;;;;;;27.50;25.50;;;;;;;;5051467;28;8852;-75
2021/07/27 03:26:57;;;;;;;;;20.25;20.25;;;;;;;;5050526;28;8879;-77
2021/07/27 03:29:24;;;;;;;;;33.00;30.25;;;;;;;;5051697;28;8874;-78
2021/07/27 03:31:51;;;;;;;;;22.75;22.50;;;;;;;;5058109;28;8832;-78
2021/07/27 03:34:20;;;;;;;;;27.25;24.50;;;;;;;;5048594;28;8878;-77
2021/07/27 03:36:48;;;;;;;;;26.50;25.00;;;;;;;;5047321;28;8896;-78
2021/07/27 03:39:16;;;;;;;;;26.75;24.50;;;;;;;;5065284;28;8876;-76
2021/07/27 03:41:43;;;;;;;;;23.50;22.50;;;;;;;;5047560;28;8870;-78
2021/07/27 03:44:11;;;;;;;;;24.75;24.75;;;;;;;;5049662;28;8900;-75
2021/07/27 03:46:42;;;;;;;;;23.00;20.50;;;;;;;;5061515;28;8864;-78
2021/07/27 03:49:09;;;;;;;;;22.75;21.75;;;;;;;;5066297;28;8883;-76
2021/07/27 03:51:38;;;;;;;;;21.00;19.00;;;;;;;;5060994;28;9001;-78
2021/07/27 03:54:06;;;;;;;;;25.00;24.00;;;;;;;;5061559;28;9632;-77
2021/07/27 03:56:33;;;;;;;;;19.50;19.00;;;;;;;;5045827;28;8878;-77
2021/07/27 03:59:00;;;;;;;;;24.75;24.50;;;;;;;;5050968;28;8870;-75
2021/07/27 04:01:27;;;;;;;;;20.75;19.00;;;;;;;;5047427;28;8814;-75
2021/07/27 04:03:54;;;;;;;;;22.50;22.50;;;;;;;;5067323;28;8879;-78
2021/07/27 04:06:22;;;;;;;;;23.50;23.50;;;;;;;;5052719;28;8851;-76
2021/07/27 04:08:50;;;;;;;;;23.75;23.75;;;;;;;;5067303;28;8887;-78
2021/07/27 04:11:17;;;;;;;;;15.25;15.25;;;;;;;;5053360;28;8900;-78
2021/07/27 04:13:45;;;;;;;;;25.50;22.50;;;;;;;;5060224;28;8879;-76
2021/07/27 04:16:14;;;;;;;;;23.75;21.75;;;;;;;;5060257;28;8842;-74
2021/07/27 04:18:41;;;;;;;;;26.25;26.25;;;;;;;;5055577;28;8946;-77
2021/07/27 04:21:08;;;;;;;;;29.50;28.50;;;;;;;;5054866;28;8960;-75
2021/07/27 04:23:35;;;;;;;;;31.50;29.25;;;;;;;;5065502;28;8872;-77
2021/07/27 04:26:04;;;;;;;;;29.75;26.25;;;;;;;;5052062;28;8876;-77
2021/07/27 04:28:31;;;;;;;;;28.25;26.75;;;;;;;;5049750;28;9620;-77
2021/07/27 04:30:59;;;;;;;;;26.00;23.00;;;;;;;;5047990;28;8888;-77
2021/07/27 04:33:37;;;;;;;;;28.50;27.00;;;;;;;;5038141;28;8831;-76
2021/07/27 04:36:05;;;;;;;;;24.50;23.25;;;;;;;;5053196;28;9764;-77
2021/07/27 04:38:32;;;;;;;;;21.25;18.25;;;;;;;;5053695;28;8870;-77
2021/07/27 04:40:59;;;;;;;;;27.50;27.50;;;;;;;;5064495;28;9015;-76
2021/07/27 04:43:28;;;;;;;;;28.50;27.00;;;;;;;;5055910;28;8997;-75
2021/07/27 04:45:56;;;;;;;;;23.00;22.00;;;;;;;;5051334;28;8845;-77
2021/07/27 04:48:23;;;;;;;;;21.50;21.50;;;;;;;;5055476;28;8871;-76
2021/07/27 04:50:50;;;;;;;;;26.50;25.25;;;;;;;;5046768;28;8870;-75
2021/07/27 04:53:22;;;;;;;;;25.50;25.00;;;;;;;;5041028;28;8864;-78
2021/07/27 04:55:49;;;;;;;;;28.50;27.00;;;;;;;;5037222;28;8864;-75
2021/07/27 04:58:17;;;;;;;;;29.75;29.75;;;;;;;;5045167;28;8854;-78
2021/07/27 05:00:46;;;;;;;;;29.75;27.50;;;;;;;;5050355;28;8969;-77
2021/07/27 05:03:13;;;;;;;;;25.50;25.00;;;;;;;;5047751;28;8869;-78
2021/07/27 05:05:40;;;;;;;;;31.25;27.25;;;;;;;;5042964;28;8862;-83
2021/07/27 05:08:08;;;;;;;;;25.75;24.00;;;;;;;;5049501;28;8854;-81
2021/07/27 05:10:35;;;;;;;;;27.75;27.75;;;;;;;;5045880;28;8866;-80
2021/07/27 05:13:03;;;;;;;;;26.75;24.75;;;;;;;;5047013;28;8888;-81
2021/07/27 05:15:30;;;;;;;;;25.50;25.50;;;;;;;;5006030;28;8885;-81
2021/07/27 05:17:58;;;;;;;;;24.25;24.25;;;;;;;;5045292;28;9008;-81
2021/07/27 05:20:27;;;;;;;;;28.00;26.75;;;;;;;;5036480;28;8874;-79
2021/07/27 05:22:54;;;;;;;;;24.00;22.25;;;;;;;;5047913;28;9005;-83
2021/07/27 05:25:22;;;;;;;;;32.50;30.25;;;;;;;;5048526;28;8847;-82
2021/07/27 05:27:49;;;;;;;;;27.25;26.25;;;;;;;;5044216;28;8959;-85
2021/07/27 05:30:18;;;;;;;;;26.00;23.75;;;;;;;;5043034;28;8890;-84
2021/07/27 05:32:46;;;;;;;;;30.25;28.00;;;;;;;;5041362;28;8855;-83
2021/07/27 05:35:15;;;;;;;;;25.25;25.25;;;;;;;;5045834;28;8870;-81
2021/07/27 05:37:44;;;;;;;;;23.50;23.50;;;;;;;;5044948;28;8894;-80
2021/07/27 05:40:12;;;;;;;;;33.00;30.50;;;;;;;;5043687;28;8854;-81
2021/07/27 05:42:39;;;;;;;;;23.75;22.50;;;;;;;;5043712;28;9611;-83
2021/07/27 05:45:08;;;;;;;;;30.25;26.00;;;;;;;;5044559;28;8870;-83
2021/07/27 05:47:35;;;;;;;;;28.25;27.00;;;;;;;;5040876;28;8835;-89
2021/07/27 05:50:03;;;;;;;;;26.25;25.25;;;;;;;;5050731;28;8866;-85
2021/07/27 05:52:32;;;;;;;;;29.00;26.25;;;;;;;;5046954;28;9013;-84
2021/07/27 05:55:00;;;;;;;;;25.25;23.50;;;;;;;;5043775;28;8851;-89
2021/07/27 05:57:27;;;;;;;;;27.00;25.50;;;;;;;;5047206;28;8846;-85
2021/07/27 05:59:55;;;;;;;;;24.00;24.00;;;;;;;;5051282;28;8904;-80
2021/07/27 06:02:23;;;;;;;;;25.00;22.50;;;;;;;;5046792;28;9599;-83
2021/07/27 06:04:50;;;;;;;;;23.00;20.75;;;;;;;;5051104;28;8868;-84
2021/07/27 06:07:17;;;;;;;;;29.25;26.25;;;;;;;;5036961;28;8955;-83
2021/07/27 06:09:46;;;;;;;;;23.25;23.25;;;;;;;;5048643;28;8884;-81
2021/07/27 06:12:13;;;;;;;;;23.00;21.25;;;;;;;;5059801;28;8854;-82
2021/07/27 06:14:41;;;;;;;;;22.00;22.00;;;;;;;;5046510;28;9045;-84
2021/07/27 06:17:11;;;;;;;;;27.50;23.00;;;;;;;;5041820;28;8854;-85
2021/07/27 06:19:38;;;;;;;;;22.50;18.75;;;;;;;;5054727;28;8900;-84
2021/07/27 06:22:05;;;;;;;;;25.25;25.25;;;;;;;;5053812;28;8849;-81
2021/07/27 06:24:32;;;;;;;;;33.50;28.75;;;;;;;;5061966;28;8884;-83
2021/07/27 06:27:01;;;;;;;;;19.75;19.25;;;;;;;;5050015;28;8852;-85
2021/07/27 06:29:28;;;;;;;;;29.50;28.25;;;;;;;;5042584;28;8874;-85
2021/07/27 06:31:55;;;;;;;;;25.25;22.75;;;;;;;;5047859;28;8817;-87
2021/07/27 06:34:23;;;;;;;;;27.75;27.50;;;;;;;;5052299;28;8882;-84
2021/07/27 06:36:50;;;;;;;;;25.50;25.25;;;;;;;;5029622;28;8871;-82
2021/07/27 06:39:17;;;;;;;;;25.75;24.25;;;;;;;;5054578;28;9621;-84
2021/07/27 06:41:45;;;;;;;;;24.25;23.25;;;;;;;;5054470;28;8875;-85
2021/07/27 06:44:13;;;;;;;;;23.50;21.75;;;;;;;;5043125;28;8850;-86
2021/07/27 06:46:41;;;;;;;;;24.00;22.50;;;;;;;;5056345;28;8968;-83
2021/07/27 06:49:08;;;;;;;;;26.50;26.50;;;;;;;;5043396;28;8863;-85
2021/07/27 06:51:35;;;;;;;;;22.00;21.25;;;;;;;;5053761;28;8940;-86
2021/07/27 06:54:02;;;;;;;;;23.75;21.25;;;;;;;;5050249;28;8872;-86
2021/07/27 06:56:30;;;;;;;;;22.75;22.25;;;;;;;;5052845;28;8874;-85
2021/07/27 06:58:57;;;;;;;;;20.75;20.75;;;;;;;;5040482;28;8888;-85
2021/07/27 07:01:25;;;;;;;;;20.00;20.00;;;;;;;;5051277;28;8808;-83
2021/07/27 07:03:54;;;;;;;;;22.25;20.50;;;;;;;;5040152;28;8933;-82
2021/07/27 07:07:00;;;;;;;;;24.25;22.75;;;;;;;;5027422;28;8888;-84
2021/07/27 07:09:27;;;;;;;;;21.75;20.75;;;;;;;;5024076;28;8853;-84
2021/07/27 07:11:55;;;;;;;;;25.75;21.75;;;;;;;;5032462;28;8867;-83
2021/07/27 07:14:22;;;;;;;;;20.00;20.00;;;;;;;;5021054;28;8932;-80
2021/07/27 07:16:50;;;;;;;;;26.00;23.50;;;;;;;;5016899;28;8861;-81
2021/07/27 07:19:18;;;;;;;;;17.75;17.75;;;;;;;;5034492;28;8895;-81
2021/07/27 07:21:46;;;;;;;;;17.25;17.25;;;;;;;;5011260;28;8899;-80
2021/07/27 07:24:13;;;;;;;;;22.25;18.00;;;;;;;;5019590;28;8880;-86
2021/07/27 07:26:40;;;;;;;;;20.75;19.00;;;;;;;;5030822;28;8871;-83
2021/07/27 07:29:08;;;;;;;;;19.20;19.20;;;;;;;;5028920;28;8883;-82
2021/07/27 07:31:35;;;;;;;;;25.00;23.50;;;;;;;;5016777;28;8814;-83
2021/07/27 07:34:04;;;;;;;;;20.75;20.25;;;;;;;;5001595;28;8906;-80
2021/07/27 07:36:31;;;;;;;;;23.50;22.50;;;;;;;;5022771;28;8883;-81
2021/07/27 07:38:59;;;;;;;;;20.00;20.00;;;;;;;;5022115;28;8885;-81
2021/07/27 07:41:28;;;;;;;;;13.60;13.60;;;;;;;;5026330;28;9108;-86
2021/07/27 07:43:56;;;;;;;;;25.00;20.50;;;;;;;;5021675;28;8964;-84
2021/07/27 07:46:23;;;;;;;;;25.75;23.00;;;;;;;;5016050;28;9118;-86
2021/07/27 07:48:50;;;;;;;;;21.00;19.25;;;;;;;;5041860;28;8879;-86
2021/07/27 07:51:19;;;;;;;;;23.75;21.50;;;;;;;;5008653;28;8879;-86
2021/07/27 07:53:46;;;;;;;;;18.60;18.60;;;;;;;;5015986;28;8874;-87
2021/07/27 07:56:14;;;;;;;;;16.00;16.00;;;;;;;;5033103;28;8878;-88
2021/07/27 08:04:44;;;;;;;;;16.40;16.40;;;;;;;;4995575;28;8827;-87
2021/07/27 08:07:13;;;;;;;;;22.60;20.60;;;;;;;;5054927;28;8880;-89
2021/07/27 08:09:41;;;;;;;;;18.00;17.00;;;;;;;;5065130;28;8959;-87
2021/07/27 08:12:08;;;;;;;;;19.00;19.00;;;;;;;;5054987;28;8882;-82
2021/07/27 08:14:36;;;;;;;;;19.20;17.80;;;;;;;;5037760;28;8891;-82
2021/07/27 08:17:04;;;;;;;;;17.60;15.00;;;;;;;;5059135;28;8886;-81
2021/07/27 08:19:31;;;;;;;;;17.60;16.60;;;;;;;;5044126;28;8925;-83
2021/07/27 08:21:59;;;;;;;;;17.40;16.60;;;;;;;;5055285;28;8914;-82
2021/07/27 08:24:30;;;;;;;;;18.80;16.80;;;;;;;;5050209;28;8848;-80
2021/07/27 08:26:57;;;;;;;;;16.40;16.40;;;;;;;;5058510;28;8870;-79
2021/07/27 08:29:59;;;;;;;;;16.80;15.40;;;;;;;;5047516;28;8917;-79
2021/07/27 08:32:26;;;;;;;;;16.60;15.00;;;;;;;;5062249;28;8769;-80
2021/07/27 08:34:54;;;;;;;;;14.20;14.20;;;;;;;;5055957;28;8885;-81
2021/07/27 08:37:22;;;;;;;;;15.40;14.40;;;;;;;;5052371;28;8856;-80
2021/07/27 08:39:50;;;;;;;;;17.60;17.60;;;;;;;;5062745;28;8868;-81
2021/07/27 08:42:18;;;;;;;;;17.50;15.00;;;;;;;;5050200;28;8892;-84
2021/07/27 08:44:47;;;;;;;;;12.60;12.60;;;;;;;;5057712;28;8904;-82
2021/07/27 08:47:16;;;;;;;;;15.00;15.00;;;;;;;;5048927;28;8921;-83
2021/07/27 08:49:44;;;;;;;;;15.40;15.40;;;;;;;;5051398;28;8856;-80
2021/07/27 08:52:11;;;;;;;;;14.80;14.80;;;;;;;;5049320;28;8870;-79
2021/07/27 08:54:43;;;;;;;;;16.00;15.00;;;;;;;;5054648;28;8856;-80
2021/07/27 08:57:14;;;;;;;;;18.40;16.60;;;;;;;;5057056;28;9644;-79
2021/07/27 08:59:42;;;;;;;;;14.40;14.40;;;;;;;;5064528;28;8888;-80
2021/07/27 09:02:09;;;;;;;;;13.00;11.50;;;;;;;;5061308;28;8800;-80
2021/07/27 09:04:37;;;;;;;;;14.80;14.80;;;;;;;;5056061;28;8891;-83
2021/07/27 09:07:05;;;;;;;;;15.25;15.25;;;;;;;;5042763;28;9700;-85
2021/07/27 09:09:34;;;;;;;;;18.60;18.00;;;;;;;;5053302;28;8878;-84
2021/07/27 09:12:02;;;;;;;;;16.50;16.50;;;;;;;;5033375;28;8857;-83
2021/07/27 09:14:32;;;;;;;;;16.60;16.60;;;;;;;;5063068;28;8946;-84
2021/07/27 09:16:59;;;;;;;;;17.50;15.25;;;;;;;;5063607;28;8876;-82
2021/07/27 09:19:27;;;;;;;;;15.80;15.80;;;;;;;;5059728;28;8864;-84
2021/07/27 09:22:05;;;;;;;;;20.25;20.25;;;;;;;;5029022;28;8894;-82
2021/07/27 09:24:32;;;;;;;;;16.25;15.50;;;;;;;;5058166;28;8876;-84
2021/07/27 09:27:01;;;;;;;;;18.40;16.00;;;;;;;;5062951;28;8902;-83
2021/07/27 09:29:31;;;;;;;;;15.60;14.20;;;;;;;;5059001;28;8856;-83
2021/07/27 09:32:00;;;;;;;;;16.40;14.40;;;;;;;;5041024;28;8819;-81
2021/07/27 09:34:28;;;;;;;;;14.60;14.60;;;;;;;;5058991;28;8872;-83
2021/07/27 09:37:05;;;;;;;;;15.00;14.20;;;;;;;;5054882;28;8950;-83
2021/07/27 09:39:33;;;;;;;;;12.40;12.40;;;;;;;;5044975;28;8987;-83
2021/07/27 09:42:02;;;;;;;;;11.60;10.20;;;;;;;;5060797;28;9623;-81
2021/07/27 09:44:32;;;;;;;;;15.80;14.20;;;;;;;;5045028;28;8888;-82
2021/07/27 09:47:01;;;;;;;;;19.40;15.80;;;;;;;;5043614;28;8881;-82
2021/07/27 09:49:29;;;;;;;;;17.40;14.80;;;;;;;;5043993;28;8880;-84
2021/07/27 09:51:57;;;;;;;;;14.00;12.20;;;;;;;;5048493;28;8897;-79
2021/07/27 09:54:25;;;;;;;;;13.20;11.60;;;;;;;;5043496;28;8864;-82
2021/07/27 09:56:53;;;;;;;;;14.40;13.00;;;;;;;;5043037;28;8882;-81
2021/07/27 09:59:21;;;;;;;;;13.80;13.80;;;;;;;;5056054;28;8886;-80
2021/07/27 10:01:54;;;;;;;;;16.80;14.20;;;;;;;;5062190;28;8838;-82
2021/07/27 10:04:24;;;;;;;;;16.00;16.00;;;;;;;;5044960;28;9669;-82
2021/07/27 10:06:51;;;;;;;;;18.20;16.20;;;;;;;;5062236;28;8959;-82
2021/07/27 10:09:31;;;;;;;;;12.20;12.20;;;;;;;;5062808;28;8959;-82
2021/07/27 10:12:06;;;;;;;;;17.40;16.00;;;;;;;;5056390;28;8895;-82
2021/07/27 10:14:42;;;;;;;;;16.40;16.00;;;;;;;;5048648;28;8900;-81
2021/07/27 10:17:11;;;;;;;;;15.20;13.60;;;;;;;;5063040;28;8979;-81
2021/07/27 10:19:40;;;;;;;;;13.60;13.60;;;;;;;;5061415;28;8876;-82
2021/07/27 10:34:56;;;;;;;;;14.00;14.00;;;;;;;;4971331;28;8853;-81
2021/07/27 10:37:23;;;;;;;;;16.00;16.00;;;;;;;;4985888;28;8913;-82
2021/07/27 10:39:57;;;;;;;;;9.60;9.60;;;;;;;;5035174;28;8892;-80
2021/07/27 10:42:25;;;;;;;;;11.00;9.80;;;;;;;;5046186;28;9667;-82
2021/07/27 10:44:53;;;;;;;;;12.00;12.00;;;;;;;;5051766;28;9634;-81
2021/07/27 10:47:23;;;;;;;;;15.60;14.80;;;;;;;;5043192;28;8851;-85
2021/07/27 10:50:06;;;;;;;;;14.60;13.20;;;;;;;;5051156;28;8878;-85
2021/07/27 10:52:33;;;;;;;;;14.60;13.20;;;;;;;;5056781;28;8863;-82
2021/07/27 10:55:02;;;;;;;;;18.80;14.60;;;;;;;;5048630;28;8870;-84
2021/07/27 10:57:34;;;;;;;;;13.20;12.60;;;;;;;;5052198;28;8873;-86
2021/07/27 11:00:03;;;;;;;;;17.00;16.00;;;;;;;;5037773;28;8880;-87
2021/07/27 11:02:30;;;;;;;;;15.80;15.20;;;;;;;;5031967;28;8823;-79
2021/07/27 11:05:01;;;;;;;;;17.40;14.40;;;;;;;;5056720;28;8852;-83
2021/07/27 11:07:33;;;;;;;;;17.00;17.00;;;;;;;;5060455;28;8892;-84
2021/07/27 11:10:01;;;;;;;;;14.40;14.40;;;;;;;;5048638;28;8888;-82
2021/07/27 11:12:32;;;;;;;;;18.60;17.20;;;;;;;;5053964;28;8873;-85
2021/07/27 11:21:44;;;;;;;;;15.00;15.00;;;;;;;;5047998;28;8963;-83
2021/07/27 11:24:13;;;;;;;;;15.20;15.20;;;;;;;;5059767;28;8900;-81
2021/07/27 11:26:40;;;;;;;;;18.40;18.00;;;;;;;;5045567;28;8850;-81
2021/07/27 11:29:11;;;;;;;;;15.20;15.20;;;;;;;;5054569;28;9681;-82
2021/07/27 11:31:46;;;;;;;;;12.80;12.80;;;;;;;;5051550;28;8830;-85
2021/07/27 11:34:13;;;;;;;;;17.00;17.00;;;;;;;;5042643;28;8874;-81
2021/07/27 11:36:50;;;;;;;;;13.20;13.20;;;;;;;;5047923;28;8866;-82
2021/07/27 11:39:19;;;;;;;;;15.60;15.60;;;;;;;;5042026;28;8854;-80
2021/07/27 11:42:01;;;;;;;;;17.00;15.00;;;;;;;;5062976;28;8926;-83
2021/07/27 11:44:29;;;;;;;;;17.00;14.20;;;;;;;;5031017;28;8876;-83
2021/07/27 11:46:56;;;;;;;;;18.60;16.60;;;;;;;;5057466;28;8878;-82
2021/07/27 11:49:25;;;;;;;;;15.80;13.80;;;;;;;;5065786;28;8880;-82
2021/07/27 11:52:02;;;;;;;;;17.00;15.20;;;;;;;;5055186;28;8860;-82
2021/07/27 11:54:31;;;;;;;;;16.60;16.20;;;;;;;;5047267;28;8918;-83
2021/07/27 11:57:00;;;;;;;;;14.60;14.20;;;;;;;;5047867;28;8879;-82
2021/07/27 11:59:28;;;;;;;;;18.00;17.00;;;;;;;;5064305;28;8876;-82
2021/07/27 12:01:56;;;;;;;;;15.20;15.20;;;;;;;;5064764;28;9611;-80
2021/07/27 12:04:23;;;;;;;;;16.00;14.20;;;;;;;;5061292;28;8858;-80
2021/07/27 12:06:52;;;;;;;;;20.00;17.40;;;;;;;;5065571;28;8992;-80
2021/07/27 12:09:22;;;;;;;;;13.20;11.80;;;;;;;;5061266;28;8915;-81
2021/07/27 12:11:51;;;;;;;;;14.60;13.00;;;;;;;;5044620;28;8882;-81
2021/07/27 12:14:19;;;;;;;;;14.00;14.00;;;;;;;;5050262;28;8864;-81
2021/07/27 12:16:48;;;;;;;;;13.00;12.20;;;;;;;;5051157;28;8877;-81
2021/07/27 12:19:16;;;;;;;;;14.80;14.80;;;;;;;;5036185;28;8856;-81
2021/07/27 12:21:43;;;;;;;;;14.20;12.40;;;;;;;;5046499;28;8889;-80
2021/07/27 12:24:10;;;;;;;;;14.40;12.40;;;;;;;;5058662;28;8868;-83
2021/07/27 12:26:41;;;;;;;;;14.00;12.60;;;;;;;;5050708;28;8866;-81
2021/07/27 12:29:10;;;;;;;;;19.20;18.00;;;;;;;;5060931;28;10950;-81
2021/07/27 12:31:37;;;;;;;;;17.60;16.00;;;;;;;;5055662;28;8825;-81
2021/07/27 12:34:04;;;;;;;;;16.60;16.60;;;;;;;;5052201;28;8890;-81
2021/07/27 12:36:33;;;;;;;;;14.20;12.60;;;;;;;;5058570;28;8936;-77
2021/07/27 12:39:01;;;;;;;;;12.20;12.20;;;;;;;;5041381;28;8894;-81
2021/07/27 12:41:28;;;;;;;;;14.20;12.60;;;;;;;;5047586;28;9004;-83
2021/07/27 12:43:55;;;;;;;;;13.80;13.80;;;;;;;;5043353;28;8880;-86
2021/07/27 12:46:25;;;;;;;;;14.60;13.00;;;;;;;;5026973;28;8862;-83
2021/07/27 12:48:53;;;;;;;;;14.60;14.60;;;;;;;;5047187;28;9656;-85
2021/07/27 12:51:21;;;;;;;;;20.50;17.00;;;;;;;;5042667;28;8889;-83
2021/07/27 12:53:49;;;;;;;;;15.50;14.75;;;;;;;;5058046;28;8848;-85
2021/07/27 12:56:16;;;;;;;;;16.20;15.00;;;;;;;;5044245;28;9961;-82
2021/07/27 12:58:43;;;;;;;;;13.60;13.60;;;;;;;;5045629;28;8883;-83
2021/07/27 13:01:10;;;;;;;;;17.00;16.75;;;;;;;;5044031;28;8796;-84
2021/07/27 13:03:39;;;;;;;;;14.20;14.20;;;;;;;;5048172;28;8975;-86
2021/07/27 13:06:07;;;;;;;;;14.00;14.00;;;;;;;;5054033;28;8859;-85
2021/07/27 13:08:35;;;;;;;;;13.00;13.00;;;;;;;;5043560;28;8889;-85
2021/07/27 13:11:03;;;;;;;;;11.60;11.60;;;;;;;;5045244;28;8866;-89
2021/07/27 13:13:30;;;;;;;;;16.20;14.00;;;;;;;;5051188;28;8868;-85
2021/07/27 13:15:58;;;;;;;;;14.00;13.80;;;;;;;;5053382;28;8909;-83
2021/07/27 13:18:26;;;;;;;;;16.00;14.40;;;;;;;;5048101;28;8908;-84
2021/07/27 13:20:54;;;;;;;;;16.00;16.00;;;;;;;;5052595;28;8882;-84
2021/07/27 13:23:22;;;;;;;;;20.50;19.50;;;;;;;;5049003;28;8908;-84
2021/07/27 13:25:49;;;;;;;;;17.00;15.00;;;;;;;;5042791;28;8877;-83
2021/07/27 13:28:16;;;;;;;;;18.00;14.75;;;;;;;;5032917;28;8877;-83
2021/07/27 13:30:46;;;;;;;;;22.25;21.00;;;;;;;;5038781;28;8793;-86
2021/07/27 13:33:13;;;;;;;;;17.80;17.80;;;;;;;;5052921;28;8928;-84
2021/07/27 13:35:41;;;;;;;;;20.20;16.40;;;;;;;;5043482;28;8874;-85
2021/07/27 13:38:10;;;;;;;;;13.40;11.80;;;;;;;;5042210;28;8890;-84
2021/07/27 13:40:37;;;;;;;;;14.20;12.60;;;;;;;;5042764;28;8870;-84
2021/07/27 13:43:05;;;;;;;;;12.20;10.20;;;;;;;;5043504;28;8850;-84
2021/07/27 13:45:36;;;;;;;;;13.80;13.80;;;;;;;;5053078;28;8845;-84
2021/07/27 13:54:50;;;;;;;;;10.00;10.00;;;;;;;;5044706;28;9605;-84
2021/07/27 13:57:17;;;;;;;;;10.80;10.80;;;;;;;;5029582;28;8876;-84
2021/07/27 13:59:45;;;;;;;;;9.40;9.00;;;;;;;;5051887;28;8878;-84
2021/07/27 14:02:12;;;;;;;;;7.40;7.40;;;;;;;;5046667;28;8879;-83
2021/07/27 14:04:39;;;;;;;;;7.40;7.40;;;;;;;;5061629;28;8987;-85
2021/07/27 14:07:25;;;;;;;;;9.00;7.60;;;;;;;;5047945;28;8918;-84
2021/07/27 14:09:57;;;;;;;;;8.40;6.80;;;;;;;;5048954;28;8889;-85
2021/07/27 14:12:27;;;;;;;;;11.00;11.00;;;;;;;;5027276;28;8850;-83
2021/07/27 14:21:22;;;;;;;;;6.80;6.40;;;;;;;;4927323;28;8843;-83
2021/07/27 14:23:50;;;;;;;;;9.00;7.40;;;;;;;;4962023;28;8881;-84
2021/07/27 14:26:18;;;;;;;;;6.80;5.80;;;;;;;;5052417;28;9933;-83
2021/07/27 14:28:46;;;;;;;;;7.40;7.40;;;;;;;;5043919;28;9017;-82
2021/07/27 14:31:14;;;;;;;;;10.20;8.80;;;;;;;;5033859;28;9692;-83
2021/07/27 14:33:41;;;;;;;;;6.20;6.20;;;;;;;;5043412;28;8850;-89
2021/07/27 14:36:15;;;;;;;;;7.00;7.00;;;;;;;;5058221;28;8872;-84
2021/07/27 14:38:42;;;;;;;;;12.80;11.60;;;;;;;;5054817;28;8910;-89
2021/07/27 14:41:13;;;;;;;;;7.80;7.80;;;;;;;;5026165;28;8862;-87
2021/07/27 14:43:42;;;;;;;;;8.20;6.60;;;;;;;;5044938;28;8904;-86
2021/07/27 14:46:10;;;;;;;;;4.00;4.00;;;;;;;;5049292;28;8914;-86
2021/07/27 14:48:40;;;;;;;;;5.40;5.00;;;;;;;;5061829;28;9676;-86
2021/07/27 14:51:08;;;;;;;;;5.20;5.20;;;;;;;;5064847;28;8910;-84
2021/07/27 14:53:35;;;;;;;;;4.60;4.60;;;;;;;;5051423;28;8871;-90
2021/07/27 14:56:02;;;;;;;;;5.40;4.20;;;;;;;;5057563;28;8858;-86
2021/07/27 14:58:30;;;;;;;;;7.40;6.80;;;;;;;;5047184;28;9005;-84
2021/07/27 15:00:59;;;;;;;;;3.20;3.20;;;;;;;;5049425;28;8814;-82
2021/07/27 15:03:26;;;;;;;;;6.20;5.80;;;;;;;;5044660;28;8874;-83
2021/07/27 15:05:53;;;;;;;;;3.60;3.60;;;;;;;;5048072;28;8970;-91
2021/07/27 15:08:21;;;;;;;;;5.80;4.00;;;;;;;;5020773;28;8854;-90
2021/07/27 15:10:48;;;;;;;;;4.40;4.40;;;;;;;;5046019;28;8854;-84
2021/07/27 15:13:16;;;;;;;;;6.80;5.80;;;;;;;;5060673;28;8868;-91
2021/07/27 15:15:43;;;;;;;;;4.80;4.80;;;;;;;;5063173;28;8882;-89
2021/07/27 15:18:12;;;;;;;;;5.20;5.20;;;;;;;;5064579;28;8884;-88
2021/07/27 15:20:39;;;;;;;;;6.00;6.00;;;;;;;;5065663;28;8852;-91
2021/07/27 15:23:06;;;;;;;;;14.60;11.40;;;;;;;;5038548;28;9955;-91
2021/07/27 15:25:36;;;;;;;;;12.60;11.40;;;;;;;;5060081;28;8860;-89
2021/07/27 15:28:03;;;;;;;;;31.25;28.00;;;;;;;;5071475;28;8918;-89
2021/07/27 15:30:32;;;;;;;;;31.75;29.25;;;;;;;;5060944;28;8823;-88
2021/07/27 15:33:02;;;;;;;;;130.25;117.75;;;;;;;;5050489;28;8880;-88
2021/07/27 15:35:31;;;;;;;;;11.80;10.60;;;;;;;;5059800;28;11705;-88
2021/07/27 15:37:58;;;;;;;;;18.40;15.40;;;;;;;;5065728;28;8996;-81